Time;durP1;ratioP1;P1;durP2;ratioP2;P2;SDS_P1;SDS_P2;PMS_P1;PMS_P2;Temp;Humidity;BMP_temperature;BMP_pressure;BME280_temperature;BME280_humidity;BME280_pressure;Samples;Min_cycle;Max_cycle;Signal;HPM_P1;HPM_P2
2022/04/02 00:00:28;;;;;;;2.90;2.60;;;;;;;;;;6100415;23;20018;-86
2022/04/02 00:02:54;;;;;;;6.68;2.78;;;;;;;;;;6124344;23;20014;-84
2022/04/02 00:05:20;;;;;;;3.92;2.15;;;;;;;;;;6099597;23;20425;-85
2022/04/02 00:07:46;;;;;;;2.33;2.10;;;;;;;;;;6124964;23;20026;-85
2022/04/02 00:10:13;;;;;;;5.00;2.67;;;;;;;;;;6100014;23;20137;-84
2022/04/02 00:12:39;;;;;;;4.60;3.05;;;;;;;;;;6125008;23;20017;-85
2022/04/02 00:15:05;;;;;;;3.65;2.53;;;;;;;;;;6124812;23;20466;-85
2022/04/02 00:17:34;;;;;;;4.90;2.22;;;;;;;;;;6099779;23;20045;-84
2022/04/02 00:20:04;;;;;;;6.15;2.60;;;;;;;;;;6124422;23;20025;-84
2022/04/02 00:22:31;;;;;;;6.00;2.70;;;;;;;;;;6124490;23;20018;-83
2022/04/02 00:24:57;;;;;;;6.47;2.85;;;;;;;;;;6100934;23;20065;-85
2022/04/02 00:27:23;;;;;;;3.42;2.53;;;;;;;;;;6100167;23;20017;-84
2022/04/02 00:29:49;;;;;;;5.32;2.85;;;;;;;;;;6100365;23;20072;-85
2022/04/02 00:32:15;;;;;;;7.95;2.83;;;;;;;;;;6124575;23;20354;-84
2022/04/02 00:34:41;;;;;;;5.68;2.80;;;;;;;;;;6100510;23;20033;-84
2022/04/02 00:37:08;;;;;;;13.45;4.38;;;;;;;;;;6100126;23;20029;-83
2022/04/02 00:39:34;;;;;;;5.22;2.78;;;;;;;;;;6124437;23;20013;-85
2022/04/02 00:42:00;;;;;;;2.83;2.50;;;;;;;;;;6124400;23;20025;-84
2022/04/02 00:44:26;;;;;;;3.97;2.67;;;;;;;;;;6125047;23;20114;-83
2022/04/02 00:46:52;;;;;;;14.55;2.92;;;;;;;;;;6123656;23;20022;-83
2022/04/02 00:49:20;;;;;;;8.90;3.00;;;;;;;;;;6099933;23;20010;-83
2022/04/02 00:51:46;;;;;;;4.35;2.65;;;;;;;;;;6100566;23;20025;-84
2022/04/02 00:54:13;;;;;;;3.88;3.08;;;;;;;;;;6124771;23;20010;-84
2022/04/02 00:56:40;;;;;;;2.67;2.40;;;;;;;;;;6123958;23;20402;-82
2022/04/02 00:59:08;;;;;;;6.82;2.65;;;;;;;;;;6099749;23;20025;-82
2022/04/02 01:01:35;;;;;;;3.58;2.35;;;;;;;;;;6124915;23;20474;-82
2022/04/02 01:04:02;;;;;;;10.40;2.75;;;;;;;;;;6100749;23;20049;-83
2022/04/02 01:06:28;;;;;;;5.45;2.45;;;;;;;;;;6123696;23;20116;-82
2022/04/02 01:08:55;;;;;;;4.50;2.80;;;;;;;;;;6099843;23;20494;-82
2022/04/02 01:11:21;;;;;;;4.97;3.10;;;;;;;;;;6123723;23;20028;-81
2022/04/02 01:13:47;;;;;;;5.80;2.80;;;;;;;;;;6100495;23;20400;-82
2022/04/02 01:16:13;;;;;;;4.97;3.33;;;;;;;;;;6099777;23;20018;-82
2022/04/02 01:18:40;;;;;;;17.30;4.32;;;;;;;;;;6102255;23;20018;-83
2022/04/02 01:21:06;;;;;;;6.95;3.10;;;;;;;;;;6101563;23;20022;-81
2022/04/02 01:23:32;;;;;;;3.55;2.40;;;;;;;;;;6126631;23;20142;-84
2022/04/02 01:26:02;;;;;;;3.72;2.80;;;;;;;;;;6126008;23;20076;-81
2022/04/02 01:28:33;;;;;;;3.80;2.50;;;;;;;;;;6127197;23;20056;-81
2022/04/02 01:31:00;;;;;;;3.40;2.67;;;;;;;;;;6103137;23;20021;-82
2022/04/02 01:33:26;;;;;;;6.30;3.25;;;;;;;;;;6127354;23;20018;-82
2022/04/02 01:35:59;;;;;;;6.30;2.65;;;;;;;;;;6102919;23;20401;-83
2022/04/02 01:38:26;;;;;;;6.50;2.70;;;;;;;;;;6127378;23;20397;-83
2022/04/02 01:40:52;;;;;;;6.82;2.58;;;;;;;;;;6127237;23;20458;-81
2022/04/02 01:43:18;;;;;;;6.20;2.53;;;;;;;;;;6102797;23;20049;-81
2022/04/02 01:45:44;;;;;;;5.22;2.20;;;;;;;;;;6102376;23;20022;-81
2022/04/02 01:48:12;;;;;;;5.40;3.10;;;;;;;;;;6102741;23;20045;-85
2022/04/02 01:50:38;;;;;;;6.47;2.65;;;;;;;;;;6126539;23;20025;-84
2022/04/02 01:53:04;;;;;;;7.53;2.70;;;;;;;;;;6125917;23;20080;-85
2022/04/02 01:55:30;;;;;;;4.63;3.20;;;;;;;;;;6126351;23;20340;-85
2022/04/02 01:57:56;;;;;;;5.97;3.25;;;;;;;;;;6101878;23;20021;-84
2022/04/02 02:00:22;;;;;;;4.53;2.33;;;;;;;;;;6125696;23;20538;-84
2022/04/02 02:02:48;;;;;;;8.95;3.25;;;;;;;;;;6125728;23;20395;-83
2022/04/02 02:05:15;;;;;;;7.93;2.25;;;;;;;;;;6125979;23;20033;-83
2022/04/02 02:07:41;;;;;;;4.00;2.28;;;;;;;;;;6101194;23;20473;-84
2022/04/02 02:10:07;;;;;;;4.35;2.63;;;;;;;;;;6101167;23;20394;-84
2022/04/02 02:12:33;;;;;;;4.75;2.58;;;;;;;;;;6101273;23;20145;-84
2022/04/02 02:14:59;;;;;;;7.72;2.67;;;;;;;;;;6101890;23;20447;-84
2022/04/02 02:17:25;;;;;;;9.00;2.70;;;;;;;;;;6101469;23;20096;-83
2022/04/02 02:19:51;;;;;;;4.80;2.40;;;;;;;;;;6101639;23;20097;-84
2022/04/02 02:22:17;;;;;;;2.83;2.20;;;;;;;;;;6125159;23;20050;-83
2022/04/02 02:24:43;;;;;;;5.95;2.58;;;;;;;;;;6101151;23;20025;-84
2022/04/02 02:27:09;;;;;;;3.20;2.25;;;;;;;;;;6101200;23;20109;-82
2022/04/02 02:29:35;;;;;;;4.63;2.75;;;;;;;;;;6124824;23;20390;-82
2022/04/02 02:32:01;;;;;;;8.57;2.35;;;;;;;;;;6125316;23;20092;-83
2022/04/02 02:37:12;;;;;;;3.05;2.50;;;;;;;;;;6125647;23;20025;-82
2022/04/02 02:39:38;;;;;;;5.43;2.40;;;;;;;;;;6101240;23;20022;-82
2022/04/02 02:42:04;;;;;;;5.32;2.30;;;;;;;;;;6125358;23;20022;-82
2022/04/02 02:44:30;;;;;;;4.70;2.15;;;;;;;;;;6101442;23;20021;-85
2022/04/02 02:46:57;;;;;;;4.03;2.10;;;;;;;;;;6101747;23;20324;-82
2022/04/02 02:49:23;;;;;;;3.42;1.92;;;;;;;;;;6101537;23;20029;-83
2022/04/02 02:51:49;;;;;;;3.38;2.20;;;;;;;;;;6126267;23;20017;-82
2022/04/02 02:54:15;;;;;;;4.50;2.15;;;;;;;;;;6099986;23;20018;-83
2022/04/02 02:56:41;;;;;;;8.57;2.00;;;;;;;;;;6125189;23;20021;-82
2022/04/02 02:59:07;;;;;;;2.60;2.03;;;;;;;;;;6100378;23;20018;-84
2022/04/02 03:01:33;;;;;;;2.97;2.47;;;;;;;;;;6124760;23;20021;-84
2022/04/02 03:03:59;;;;;;;3.85;1.75;;;;;;;;;;6124991;23;20014;-82
2022/04/02 03:06:25;;;;;;;3.97;2.08;;;;;;;;;;6100620;23;20022;-84
2022/04/02 03:08:51;;;;;;;2.42;2.17;;;;;;;;;;6100009;23;20050;-81
2022/04/02 03:11:17;;;;;;;1.73;1.63;;;;;;;;;;6100229;23;20022;-84
2022/04/02 03:13:44;;;;;;;5.82;3.38;;;;;;;;;;6099731;23;20014;-83
2022/04/02 03:16:10;;;;;;;2.00;1.65;;;;;;;;;;6124985;23;20057;-84
2022/04/02 03:18:36;;;;;;;4.03;1.83;;;;;;;;;;6124944;23;20018;-84
2022/04/02 03:21:02;;;;;;;2.58;2.00;;;;;;;;;;6124883;23;20057;-85
2022/04/02 03:23:28;;;;;;;6.28;1.98;;;;;;;;;;6100380;23;20017;-84
2022/04/02 03:25:55;;;;;;;2.65;1.83;;;;;;;;;;6124935;23;20022;-84
2022/04/02 03:28:21;;;;;;;4.90;1.90;;;;;;;;;;6125153;23;20022;-85
2022/04/02 03:30:47;;;;;;;4.65;2.28;;;;;;;;;;6101419;23;20096;-83
2022/04/02 03:33:14;;;;;;;6.07;2.05;;;;;;;;;;6100093;23;20208;-84
2022/04/02 03:35:44;;;;;;;1.92;1.48;;;;;;;;;;6100359;23;20017;-84
2022/04/02 03:38:10;;;;;;;2.13;1.55;;;;;;;;;;6124882;23;20021;-85
2022/04/02 03:40:36;;;;;;;3.45;1.92;;;;;;;;;;6100019;23;20077;-84
2022/04/02 03:43:03;;;;;;;1.65;1.55;;;;;;;;;;6100154;23;20014;-84
2022/04/02 03:45:29;;;;;;;2.50;1.90;;;;;;;;;;6103685;23;20033;-85
2022/04/02 03:47:57;;;;;;;3.50;1.45;;;;;;;;;;6129881;23;20017;-85
2022/04/02 03:50:23;;;;;;;1.52;1.38;;;;;;;;;;6105262;23;20395;-85
2022/04/02 03:52:49;;;;;;;4.88;1.90;;;;;;;;;;6104990;23;20024;-82
2022/04/02 03:55:15;;;;;;;4.55;1.77;;;;;;;;;;6103973;23;20017;-84
2022/04/02 03:57:41;;;;;;;3.38;1.23;;;;;;;;;;6105362;23;20101;-84
2022/04/02 04:00:09;;;;;;;2.70;1.75;;;;;;;;;;6104892;23;20100;-85
2022/04/02 04:02:37;;;;;;;1.95;1.50;;;;;;;;;;6104729;23;20024;-84
2022/04/02 04:05:05;;;;;;;6.68;1.75;;;;;;;;;;6105204;23;20474;-83
2022/04/02 04:07:32;;;;;;;3.17;1.63;;;;;;;;;;6104808;23;20021;-83
2022/04/02 04:09:58;;;;;;;3.13;1.50;;;;;;;;;;6129275;23;20013;-84
2022/04/02 04:12:24;;;;;;;4.38;1.70;;;;;;;;;;6105143;23;20450;-83
2022/04/02 04:14:50;;;;;;;3.53;1.98;;;;;;;;;;6105186;23;20017;-85
2022/04/02 04:17:16;;;;;;;2.67;1.75;;;;;;;;;;6128822;23;20354;-85
2022/04/02 04:19:42;;;;;;;8.60;2.50;;;;;;;;;;6105370;23;20068;-85
2022/04/02 04:22:10;;;;;;;2.78;1.58;;;;;;;;;;6105472;23;20056;-85
2022/04/02 04:24:36;;;;;;;2.80;1.80;;;;;;;;;;6104980;23;20025;-85
2022/04/02 04:27:02;;;;;;;2.85;1.08;;;;;;;;;;6105268;23;20029;-84
2022/04/02 04:29:28;;;;;;;6.80;1.80;;;;;;;;;;6105735;23;20017;-85
2022/04/02 04:31:55;;;;;;;2.50;1.67;;;;;;;;;;6129900;23;20049;-85
2022/04/02 04:34:21;;;;;;;1.77;1.25;;;;;;;;;;6106070;23;20462;-85
2022/04/02 04:36:47;;;;;;;3.47;2.10;;;;;;;;;;6105078;23;20028;-85
2022/04/02 04:39:13;;;;;;;1.23;1.13;;;;;;;;;;6129913;23;20014;-84
2022/04/02 04:41:41;;;;;;;2.58;1.63;;;;;;;;;;6129278;23;20053;-84
2022/04/02 04:44:07;;;;;;;5.38;1.85;;;;;;;;;;6105761;23;20097;-85
2022/04/02 04:46:33;;;;;;;3.72;1.60;;;;;;;;;;6100165;23;20064;-84
2022/04/02 04:48:59;;;;;;;4.85;1.63;;;;;;;;;;6100258;23;20022;-84
2022/04/02 04:51:25;;;;;;;2.13;1.60;;;;;;;;;;6100999;23;20073;-85
2022/04/02 04:53:51;;;;;;;1.60;1.35;;;;;;;;;;6126771;23;20328;-85
2022/04/02 04:56:17;;;;;;;4.05;1.63;;;;;;;;;;6101431;23;20014;-84
2022/04/02 04:58:44;;;;;;;6.22;1.50;;;;;;;;;;6101991;23;20382;-84
2022/04/02 05:01:10;;;;;;;3.80;1.63;;;;;;;;;;6102045;23;20031;-83
2022/04/02 05:03:36;;;;;;;3.00;1.88;;;;;;;;;;6126934;23;20014;-84
2022/04/02 05:06:02;;;;;;;4.88;1.48;;;;;;;;;;6127669;23;20079;-85
2022/04/02 05:08:31;;;;;;;6.72;1.40;;;;;;;;;;6126725;23;20087;-84
2022/04/02 05:10:57;;;;;;;3.67;1.90;;;;;;;;;;6126551;23;20022;-85
2022/04/02 05:13:23;;;;;;;1.67;1.50;;;;;;;;;;6102522;23;20018;-84
2022/04/02 05:15:49;;;;;;;1.52;1.38;;;;;;;;;;6126800;23;20033;-83
2022/04/02 05:18:16;;;;;;;2.20;1.48;;;;;;;;;;6125763;23;20018;-85
2022/04/02 05:20:42;;;;;;;3.72;1.20;;;;;;;;;;6126336;23;20022;-85
2022/04/02 05:23:09;;;;;;;5.13;1.50;;;;;;;;;;6127854;23;20443;-84
2022/04/02 05:25:35;;;;;;;3.50;1.65;;;;;;;;;;6101931;23;20320;-84
2022/04/02 05:28:05;;;;;;;5.82;2.05;;;;;;;;;;6125685;23;20382;-84
2022/04/02 05:30:32;;;;;;;4.72;1.50;;;;;;;;;;6126240;23;20021;-82
2022/04/02 05:32:58;;;;;;;1.73;1.35;;;;;;;;;;6126653;23;20077;-85
2022/04/02 05:35:24;;;;;;;2.60;1.58;;;;;;;;;;6128414;23;20355;-85
2022/04/02 05:37:50;;;;;;;1.92;1.65;;;;;;;;;;6101459;23;20488;-82
2022/04/02 05:40:17;;;;;;;3.00;1.63;;;;;;;;;;6126136;23;20021;-84
2022/04/02 05:42:50;;;;;;;1.77;1.67;;;;;;;;;;6102819;23;20022;-87
2022/04/02 05:45:16;;;;;;;1.75;1.50;;;;;;;;;;6101312;23;20018;-86
2022/04/02 05:47:46;;;;;;;1.80;1.50;;;;;;;;;;6131103;23;20387;-86
2022/04/02 05:50:13;;;;;;;4.82;1.58;;;;;;;;;;6130563;23;20052;-87
2022/04/02 05:52:40;;;;;;;1.60;1.40;;;;;;;;;;6106556;23;20323;-87
2022/04/02 05:55:07;;;;;;;3.20;1.60;;;;;;;;;;6106198;23;20104;-86
2022/04/02 05:57:33;;;;;;;6.97;1.63;;;;;;;;;;6130568;23;20389;-85
2022/04/02 05:59:59;;;;;;;2.38;2.17;;;;;;;;;;6106184;23;20025;-85
2022/04/02 06:02:25;;;;;;;2.10;1.45;;;;;;;;;;6104762;23;20053;-86
2022/04/02 06:04:52;;;;;;;1.95;1.60;;;;;;;;;;6130186;23;20346;-86
2022/04/02 06:07:18;;;;;;;2.85;2.00;;;;;;;;;;6106648;23;20033;-86
2022/04/02 06:09:44;;;;;;;3.25;1.63;;;;;;;;;;6130965;23;20026;-86
2022/04/02 06:12:10;;;;;;;10.13;3.03;;;;;;;;;;6131230;23;20029;-86
2022/04/02 06:14:36;;;;;;;2.67;1.45;;;;;;;;;;6106292;23;20021;-86
2022/04/02 06:17:02;;;;;;;4.78;2.35;;;;;;;;;;6107296;23;20013;-89
2022/04/02 06:19:28;;;;;;;4.07;1.40;;;;;;;;;;6131430;23;20018;-88
2022/04/02 06:21:55;;;;;;;2.80;1.60;;;;;;;;;;6130095;23;20026;-89
2022/04/02 06:24:21;;;;;;;1.73;1.63;;;;;;;;;;6157783;23;20018;-89
2022/04/02 06:26:47;;;;;;;4.22;1.95;;;;;;;;;;6131041;23;20084;-86
2022/04/02 06:29:13;;;;;;;4.60;1.83;;;;;;;;;;6156353;23;20013;-86
2022/04/02 06:31:39;;;;;;;3.67;1.70;;;;;;;;;;6157677;23;20072;-86
2022/04/02 06:34:05;;;;;;;2.75;1.88;;;;;;;;;;6132921;23;20013;-86
2022/04/02 06:36:32;;;;;;;4.13;1.98;;;;;;;;;;6132639;23;20461;-86
2022/04/02 06:38:58;;;;;;;3.78;3.22;;;;;;;;;;6157940;23;20032;-86
2022/04/02 06:41:24;;;;;;;6.95;3.17;;;;;;;;;;6158070;23;20028;-86
2022/04/02 06:43:50;;;;;;;8.00;5.60;;;;;;;;;;6158539;23;20013;-84
2022/04/02 06:46:16;;;;;;;6.05;3.95;;;;;;;;;;6102568;23;20025;-84
2022/04/02 06:48:42;;;;;;;6.75;2.33;;;;;;;;;;6102803;23;20022;-84
2022/04/02 06:51:09;;;;;;;2.92;2.00;;;;;;;;;;6102211;23;20359;-86
2022/04/02 06:53:35;;;;;;;4.20;1.88;;;;;;;;;;6127097;23;20443;-83
2022/04/02 06:56:01;;;;;;;4.75;2.28;;;;;;;;;;6128722;23;20332;-84
2022/04/02 06:58:35;;;;;;;2.15;1.88;;;;;;;;;;6126109;23;20029;-85
2022/04/02 07:01:01;;;;;;;2.70;1.88;;;;;;;;;;6125644;23;20534;-84
2022/04/02 07:03:27;;;;;;;3.60;1.95;;;;;;;;;;6126880;23;20018;-85
2022/04/02 07:05:53;;;;;;;3.28;2.20;;;;;;;;;;6127565;23;20022;-83
2022/04/02 07:08:19;;;;;;;2.13;1.85;;;;;;;;;;6127286;23;20014;-85
2022/04/02 07:10:45;;;;;;;2.58;2.00;;;;;;;;;;6124732;23;20022;-84
2022/04/02 07:13:11;;;;;;;2.72;1.83;;;;;;;;;;6125337;23;20014;-83
2022/04/02 07:15:39;;;;;;;4.88;1.95;;;;;;;;;;6124455;23;20085;-84
2022/04/02 07:18:09;;;;;;;7.63;2.20;;;;;;;;;;6101387;23;20056;-84
2022/04/02 07:20:36;;;;;;;3.20;2.10;;;;;;;;;;6100786;23;20513;-84
2022/04/02 07:23:03;;;;;;;3.10;1.70;;;;;;;;;;6126693;23;20351;-85
2022/04/02 07:25:30;;;;;;;2.65;2.15;;;;;;;;;;6124750;23;20451;-84
2022/04/02 07:27:56;;;;;;;5.05;1.83;;;;;;;;;;6100081;23;20446;-84
2022/04/02 07:30:23;;;;;;;3.17;2.00;;;;;;;;;;6124285;23;20026;-83
2022/04/02 07:32:49;;;;;;;3.92;2.22;;;;;;;;;;6100408;23;20018;-85
2022/04/02 07:35:15;;;;;;;4.32;1.90;;;;;;;;;;6124577;23;20018;-84
2022/04/02 07:37:41;;;;;;;3.33;2.20;;;;;;;;;;6124504;23;20014;-84
2022/04/02 07:40:27;;;;;;;2.15;1.83;;;;;;;;;;6100794;23;20018;-83
2022/04/02 07:43:12;;;;;;;3.15;2.55;;;;;;;;;;6125170;23;20076;-84
2022/04/02 07:45:43;;;;;;;3.20;2.20;;;;;;;;;;6099855;23;20343;-84
2022/04/02 07:48:10;;;;;;;5.07;2.00;;;;;;;;;;6124509;23;20076;-84
2022/04/02 07:50:41;;;;;;;4.40;1.90;;;;;;;;;;6125175;23;20029;-83
2022/04/02 07:53:12;;;;;;;2.15;1.95;;;;;;;;;;6100697;23;20024;-84
2022/04/02 07:55:39;;;;;;;3.10;2.20;;;;;;;;;;6125020;23;20065;-83
2022/04/02 07:58:08;;;;;;;8.35;2.22;;;;;;;;;;6099709;23;20045;-82
2022/04/02 08:00:35;;;;;;;4.15;2.22;;;;;;;;;;6099847;23;20088;-83
2022/04/02 08:03:01;;;;;;;4.75;2.30;;;;;;;;;;6099635;23;20117;-84
2022/04/02 08:05:27;;;;;;;7.13;2.20;;;;;;;;;;6100504;23;20021;-84
2022/04/02 08:07:55;;;;;;;2.90;1.60;;;;;;;;;;6099875;23;20045;-84
2022/04/02 08:10:23;;;;;;;4.80;2.00;;;;;;;;;;6100237;23;20451;-84
2022/04/02 08:12:49;;;;;;;1.73;1.40;;;;;;;;;;6124893;23;20068;-84
2022/04/02 08:15:20;;;;;;;6.55;1.77;;;;;;;;;;6125206;23;20029;-84
2022/04/02 08:17:47;;;;;;;4.65;1.70;;;;;;;;;;6124644;23;20020;-84
2022/04/02 08:20:16;;;;;;;3.80;1.40;;;;;;;;;;6099844;23;20022;-84
2022/04/02 08:22:43;;;;;;;4.68;2.15;;;;;;;;;;6099950;23;20054;-83
2022/04/02 08:25:09;;;;;;;1.52;1.38;;;;;;;;;;6124443;23;20018;-83
2022/04/02 08:27:38;;;;;;;5.20;1.25;;;;;;;;;;6124027;23;20018;-84
2022/04/02 08:30:12;;;;;;;5.00;2.20;;;;;;;;;;6125790;23;20098;-84
2022/04/02 08:32:41;;;;;;;1.88;1.70;;;;;;;;;;6123903;23;20424;-85
2022/04/02 08:35:08;;;;;;;33.17;2.28;;;;;;;;;;6100314;23;20510;-84
2022/04/02 08:37:40;;;;;;;2.88;1.60;;;;;;;;;;6099570;23;20139;-85
2022/04/02 08:40:27;;;;;;;2.90;1.70;;;;;;;;;;6123599;23;20021;-84
2022/04/02 08:43:08;;;;;;;3.60;1.60;;;;;;;;;;6099418;23;20350;-84
2022/04/02 08:45:40;;;;;;;3.83;2.28;;;;;;;;;;6128648;23;20048;-84
2022/04/02 08:48:26;;;;;;;3.55;1.48;;;;;;;;;;6104101;23;20017;-83
2022/04/02 08:50:55;;;;;;;2.88;1.50;;;;;;;;;;6104168;23;20021;-83
2022/04/02 08:53:21;;;;;;;3.72;1.38;;;;;;;;;;6104803;23;20013;-84
2022/04/02 08:55:52;;;;;;;5.72;1.30;;;;;;;;;;6129092;23;20025;-84
2022/04/02 08:58:22;;;;;;;2.20;1.60;;;;;;;;;;6129020;23;20021;-85
2022/04/02 09:01:02;;;;;;;2.25;1.40;;;;;;;;;;6128495;23;20021;-84
2022/04/02 09:03:47;;;;;;;5.65;1.88;;;4.10;99.90;;;;;;6104290;23;20394;-84
2022/04/02 09:06:19;;;;;;;2.03;1.38;;;;;;;;;;6128876;23;20036;-84
2022/04/02 09:08:48;;;;;;;5.13;1.80;;;;;;;;;;6104754;23;20024;-85
2022/04/02 09:11:46;;;;;;;1.52;1.25;;;;;;;;;;6129534;23;20044;-86
2022/04/02 09:14:25;;;;;;;1.75;1.45;;;;;;;;;;5961451;23;20024;-84
2022/04/02 09:16:54;;;;;;;5.90;1.92;;;;;;;;;;5984187;23;20031;-84
2022/04/02 09:19:31;;;;;;;1.60;1.15;;;;;;;;;;5984193;23;20049;-83
2022/04/02 09:22:15;;;;;;;3.72;1.40;;;;;;;;;;6008626;23;20058;-85
2022/04/02 09:24:55;;;;;;;2.78;1.90;;;;;;;;;;5985803;23;20024;-84
2022/04/02 09:27:30;;;;;;;1.70;1.35;;;;;;;;;;5986039;23;20353;-84
2022/04/02 09:30:05;;;;;;;4.30;1.90;;;;;;;;;;5986458;23;20043;-84
2022/04/02 09:32:50;;;;;;;4.07;2.30;;;;;;;;;;6008929;23;20015;-85
2022/04/02 09:35:22;;;;;;;1.45;1.20;;;;;;;;;;5985800;23;20016;-85
2022/04/02 09:38:11;;;;;;;2.92;1.30;;;;;;;;;;6009964;23;20023;-85
2022/04/02 09:40:45;;;;;;;2.33;1.00;;;;;;;;;;5987686;23;20019;-85
2022/04/02 09:43:18;;;;;;;3.33;1.27;;;;;;;;;;6010334;23;20020;-83
2022/04/02 09:45:55;;;;;;;1.85;1.17;;;;;;;;;;5987240;23;20084;-84
2022/04/02 09:48:27;;;;;;;2.25;1.65;;;;;;;;;;5987355;23;20044;-83
2022/04/02 09:50:58;;;;;;;1.55;1.30;;;;;;;;;;6120354;23;20033;-84
2022/04/02 09:53:25;;;;;;;2.13;1.30;;;;;;;;;;6128478;23;20048;-84
2022/04/02 09:55:54;;;;;;;1.13;0.90;;;;;;;;;;6128337;23;20462;-84
2022/04/02 09:58:33;;;;;;;2.15;1.15;;;;;;;;;;6102333;23;20025;-84
2022/04/02 10:00:59;;;;;;;2.42;1.25;;;;;;;;;;6102765;23;20081;-85
2022/04/02 10:03:25;;;;;;;3.65;1.02;;;;;;;;;;6128599;23;20029;-83
2022/04/02 10:06:03;;;;;;;1.20;1.10;;;;;;;;;;6128301;23;20022;-83
2022/04/02 10:08:39;;;;;;;1.50;1.40;;;;;;;;;;6127243;23;20026;-85
2022/04/02 10:11:08;;;;;;;2.35;1.30;;;;;;;;;;6127219;23;20025;-83
2022/04/02 10:13:35;;;;;;;2.00;1.60;;;;;;;;;;6126700;23;20160;-85
2022/04/02 10:16:01;;;;;;;2.10;1.25;;;;;;;;;;6128252;23;20045;-84
2022/04/02 10:18:28;;;;;;;3.55;1.30;;;;;;;;;;6103017;23;20044;-84
2022/04/02 10:20:54;;;;;;;2.40;2.17;;;;;;;;;;6102336;23;20026;-83
2022/04/02 10:23:22;;;;;;;9.45;1.55;;;;;;;;;;6126505;23;20049;-84
2022/04/02 10:25:57;;;;;;;7.93;1.40;;;;;;;;;;6127116;23;20061;-85
2022/04/02 10:28:28;;;;;;;7.85;2.00;;;;;;;;;;6127013;23;20053;-84
2022/04/02 10:30:56;;;;;;;3.63;1.23;;;;;;;;;;6126707;23;20033;-85
2022/04/02 10:33:28;;;;;;;8.13;2.03;;;;;;;;;;6102038;23;20042;-84
2022/04/02 10:35:55;;;;;;;2.58;1.45;;;;;;;;;;6126682;23;20398;-85
2022/04/02 10:38:24;;;;;;;3.47;1.17;;;;;;;;;;6126257;23;20081;-83
2022/04/02 10:40:52;;;;;;;1.55;1.20;;;;;;;;;;6126510;23;20053;-82
2022/04/02 10:43:24;;;;;;;2.38;1.30;;;;;;;;;;6127260;23;20045;-85
2022/04/02 10:45:54;;;;;;;2.13;1.48;;;;;;;;;;6125895;23;20455;-84
2022/04/02 10:48:39;;;;;;;1.40;1.08;;;;;;;;;;6126513;23;20022;-84
2022/04/02 10:51:10;;;;;;;1.65;1.30;;;;;;;;;;6126815;23;20033;-85
2022/04/02 10:53:39;;;;;;;2.20;1.00;;;;;;;;;;6125779;23;20042;-85
2022/04/02 10:56:07;;;;;;;1.98;1.20;;;;;;;;;;6101722;23;20025;-83
2022/04/02 10:58:37;;;;;;;1.13;1.00;;;;;;;;;;6101667;23;20017;-84
2022/04/02 11:01:05;;;;;;;3.35;1.40;;;;;;;;;;6101562;23;20045;-85
2022/04/02 11:03:40;;;;;;;6.40;1.40;;;;;;;;;;6100658;23;20018;-85
2022/04/02 11:06:11;;;;;;;3.20;1.30;;;;;;;;;;6125736;23;20021;-84
2022/04/02 11:08:37;;;;;;;2.08;1.52;;;;;;;;;;6100790;23;20017;-85
2022/04/02 11:11:18;;;;;;;1.83;1.10;;;;;;;;;;6125790;23;20022;-84
2022/04/02 11:13:44;;;;;;;2.10;1.33;;;;;;;;;;6101902;23;20029;-86
2022/04/02 11:16:23;;;;;;;2.03;1.10;;;6.50;99.90;;;;;;6125647;23;20074;-84
2022/04/02 11:21:53;;;;;;;4.25;1.13;;;;;;;;;;6125123;23;20088;-84
2022/04/02 11:24:23;;;;;;;11.13;1.50;;;;;;;;;;6101037;23;20351;-85
2022/04/02 11:26:50;;;;;;;1.23;1.13;;;;;;;;;;6100718;23;20084;-86
2022/04/02 11:29:18;;;;;;;2.25;1.50;;;;;;;;;;6125197;23;20022;-85
2022/04/02 11:31:46;;;;;;;1.95;1.60;;;;;;;;;;6100709;23;20081;-84
2022/04/02 11:34:19;;;;;;;3.65;1.08;;;;;;;;;;6099531;23;20072;-86
2022/04/02 11:36:47;;;;;;;6.15;1.35;;;;;;;;;;6124754;23;20026;-84
2022/04/02 11:39:33;;;;;;;2.10;1.30;;;;;;;;;;6099928;23;20018;-86
2022/04/02 11:42:03;;;;;;;2.15;1.23;;;;;;;;;;6097910;23;20079;-83
2022/04/02 11:44:38;;;;;;;1.85;1.20;;;;;;;;;;6112146;23;20021;-85
2022/04/02 11:47:05;;;;;;;2.20;1.20;;;;;;;;;;6097104;23;20024;-85
2022/04/02 11:49:39;;;;;;;2.55;1.30;;;;;;;;;;6099898;23;20018;-84
2022/04/02 11:52:13;;;;;;;4.07;1.33;;;;;;;;;;6099868;23;20057;-84
2022/04/02 11:54:59;;;;;;;1.77;1.23;;;7.00;99.90;;;;;;6099286;23;20017;-85
2022/04/02 11:57:25;;;;;;;3.05;1.23;;;;;;;;;;6100542;23;20021;-82
2022/04/02 11:59:57;;;;;;;1.45;1.17;;;;;;;;;;6099560;23;20018;-85
2022/04/02 12:02:35;;;;;;;5.50;1.38;;;;;;;;;;6098737;23;20018;-84
2022/04/02 12:05:01;;;;;;;3.58;2.10;;;;;;;;;;6098341;23;20052;-84
2022/04/02 12:07:38;;;;;;;3.78;1.17;;;;;;;;;;6124964;23;20113;-85
2022/04/02 12:10:05;;;;;;;1.52;1.40;;;;;;;;;;6124003;23;20050;-84
2022/04/02 12:12:33;;;;;;;1.77;1.00;;;;;;;;;;6123586;23;20026;-84
2022/04/02 12:15:08;;;;;;;2.22;1.13;;;;;;;;;;6100714;23;20017;-84
2022/04/02 12:17:35;;;;;;;3.15;1.13;;;;;;;;;;6124827;23;20026;-85
2022/04/02 12:20:03;;;;;;;4.32;1.85;;;;;;;;;;6100137;23;20045;-85
2022/04/02 12:22:38;;;;;;;1.13;1.00;;;;;;;;;;6124576;23;20028;-85
2022/04/02 12:25:06;;;;;;;1.33;1.10;;;;;;;;;;6124406;23;20036;-85
2022/04/02 12:27:48;;;;;;;1.80;1.30;;;;;;;;;;6097728;23;20024;-82
2022/04/02 12:30:20;;;;;;;5.13;1.30;;;;;;;;;;6099153;23;20092;-81
2022/04/02 12:32:46;;;;;;;1.73;1.20;;;;;;;;;;6099236;23;20351;-84
2022/04/02 12:35:13;;;;;;;1.52;1.00;;;;;;;;;;6099194;23;20096;-84
2022/04/02 12:37:46;;;;;;;1.13;1.02;;;;;;;;;;6099562;23;20463;-84
2022/04/02 12:40:22;;;;;;;3.80;1.40;;;;;;;;;;6123004;23;20018;-85
2022/04/02 12:42:49;;;;;;;3.22;1.27;;;;;;;;;;6096494;23;20093;-84
2022/04/02 12:45:17;;;;;;;1.80;1.30;;;;;;;;;;6099751;23;20056;-84
2022/04/02 12:47:56;;;;;;;1.58;1.48;;;;;;;;;;6127916;23;20025;-85
2022/04/02 12:50:22;;;;;;;2.75;1.30;;;;;;;;;;6128600;23;20029;-85
2022/04/02 12:52:49;;;;;;;2.15;1.35;;;;;;;;;;6128106;23;20057;-84
2022/04/02 12:55:22;;;;;;;2.65;1.50;;;;;;;;;;6128709;23;20023;-85
2022/04/02 12:58:10;;;;;;;1.55;1.35;;;;;;;;;;6128610;23;20036;-85
2022/04/02 13:00:37;;;;;;;1.52;1.27;;;;;;;;;;6104658;23;20028;-84
2022/04/02 13:03:04;;;;;;;1.38;1.00;;;;;;;;;;6128177;23;20056;-84
2022/04/02 13:05:58;;;;;;;5.95;1.00;;;6.80;99.90;;;;;;6128226;23;20014;-85
2022/04/02 13:08:25;;;;;;;1.30;1.20;;;;;;;;;;6099204;23;20022;-85
2022/04/02 13:10:58;;;;;;;1.73;1.10;;;6.70;99.90;;;;;;6129514;23;20029;-85
2022/04/02 13:13:39;;;;;;;2.60;1.40;;;;;;;;;;6106520;23;20025;-85
2022/04/02 13:16:06;;;;;;;2.95;1.42;;;;;;;;;;6107577;23;20063;-85
2022/04/02 13:21:20;;;;;;;6.68;1.25;;;;;;;;;;6132133;23;20029;-85
2022/04/02 13:23:58;;;;;;;6.18;1.80;;;;;;;;;;6107641;23;20013;-84
2022/04/02 13:26:31;;;;;;;5.18;1.17;;;;;;;;;;6130971;23;20032;-86
2022/04/02 13:28:57;;;;;;;3.65;2.22;;;;;;;;;;6131290;23;20021;-84
2022/04/02 13:31:29;;;;;;;1.58;1.48;;;;;;;;;;6131891;23;20396;-86
2022/04/02 13:34:17;;;;;;;4.80;1.40;;;;;;;;;;6131888;23;20025;-85
2022/04/02 13:36:55;;;;;;;1.48;1.38;;;;;;;;;;6130546;23;20401;-85
2022/04/02 13:39:24;;;;;;;3.10;1.20;;;;;;;;;;6130002;23;20453;-85
2022/04/02 13:41:52;;;;;;;3.60;1.23;;;;;;;;;;6105388;23;20070;-85
2022/04/02 13:44:23;;;;;;;4.00;1.23;;;;;;;;;;6130162;23;20017;-85
2022/04/02 13:46:53;;;;;;;4.10;1.13;;;;;;;;;;6125474;23;20451;-85
2022/04/02 13:49:27;;;;;;;4.20;1.20;;;;;;;;;;6125649;23;20324;-85
2022/04/02 13:51:55;;;;;;;2.45;1.40;;;;;;;;;;6126674;23;20077;-85
2022/04/02 13:54:28;;;;;;;2.65;1.55;;;;;;;;;;6101228;23;20032;-84
2022/04/02 13:56:56;;;;;;;3.25;1.48;;;;;;;;;;6126625;23;20026;-85
2022/04/02 13:59:26;;;;;;;3.28;1.35;;;;;;;;;;6101217;23;20084;-85
2022/04/02 14:01:53;;;;;;;2.72;1.23;;;;;;;;;;6101369;23;20018;-85
2022/04/02 14:04:40;;;;;;;2.83;1.42;;;;;;;;;;6127306;23;20050;-84
2022/04/02 14:07:07;;;;;;;2.03;1.00;;;;;;;;;;6100652;23;20025;-84
2022/04/02 14:09:34;;;;;;;1.50;1.40;;;;;;;;;;6102782;23;20101;-85
2022/04/02 14:12:06;;;;;;;1.35;1.25;;;;;;;;;;6102247;23;20022;-85
2022/04/02 14:14:52;;;;;;;2.08;1.30;;;;;;;;;;6102220;23;20041;-84
2022/04/02 14:17:22;;;;;;;3.50;1.30;;;;;;;;;;6125332;23;20156;-85
2022/04/02 14:19:52;;;;;;;3.75;1.40;;;;;;;;;;6102316;23;20025;-85
2022/04/02 14:22:22;;;;;;;4.35;1.55;;;;;;;;;;6127696;23;20018;-85
2022/04/02 14:25:00;;;;;;;3.08;1.38;;;;;;;;;;6127267;23;20049;-84
2022/04/02 14:27:44;;;;;;;1.77;1.05;;;6.60;99.90;;;;;;6102022;23;20029;-84
2022/04/02 14:30:32;;;;;;;2.85;1.70;;;6.80;99.90;;;;;;6126766;23;20486;-84
2022/04/02 14:32:58;;;;;;;1.30;1.20;;;;;;;;;;6126925;23;20020;-83
2022/04/02 14:35:43;;;;;;;3.22;1.23;;;;;;;;;;6125946;23;20026;-83
2022/04/02 14:38:15;;;;;;;1.50;1.30;;;;;;;;;;6126052;23;20014;-84
2022/04/02 14:41:09;;;;;;;1.02;0.90;;;;;;;;;;6102254;23;20014;-83
2022/04/02 14:43:38;;;;;;;1.75;1.27;;;;;;;;;;6098476;23;20018;-83
2022/04/02 14:46:04;;;;;;;5.65;1.40;;;;;;;;;;6100188;23;20058;-84
2022/04/02 14:48:49;;;;;;;2.38;1.30;;;;;;;;;;6099801;23;20026;-84
2022/04/02 14:51:18;;;;;;;2.05;1.33;;;;;;;;;;6100431;23;20018;-84
2022/04/02 14:54:26;;;;;;;3.90;1.42;;;7.20;99.90;;;;;;6124432;23;20022;-84
2022/04/02 14:57:11;;;;;;;1.88;1.30;;;;;;;;;;6126070;23;20032;-85
2022/04/02 14:59:52;;;;;;;1.88;1.13;;;;;;;;;;6126169;23;20096;-84
2022/04/02 15:02:55;;;;;;;1.83;1.67;;;7.40;99.90;;;;;;6101803;23;20105;-84